sensor_id;sensor_type;location;lat;lon;timestamp;pressure;altitude;pressure_sealevel;temperature;humidity
26719;BME280;14326;50.794;6.060;2023-03-04T00:00:44;100619.41;;;1.88;100.00
26719;BME280;14326;50.794;6.060;2023-03-04T00:03:12;100624.00;;;1.92;100.00
26719;BME280;14326;50.794;6.060;2023-03-04T00:05:48;100618.66;;;1.90;100.00
26719;BME280;14326;50.794;6.060;2023-03-04T00:08:16;100620.91;;;1.84;100.00
26719;BME280;14326;50.794;6.060;2023-03-04T00:10:43;100621.81;;;1.85;100.00
26719;BME280;14326;50.794;6.060;2023-03-04T00:13:10;100629.69;;;1.85;100.00
26719;BME280;14326;50.794;6.060;2023-03-04T00:15:37;100622.84;;;1.87;100.00
26719;BME280;14326;50.794;6.060;2023-03-04T00:18:03;100628.59;;;1.96;100.00
26719;BME280;14326;50.794;6.060;2023-03-04T00:21:00;100628.53;;;1.94;100.00
26719;BME280;14326;50.794;6.060;2023-03-04T00:23:47;100631.06;;;1.93;100.00
26719;BME280;14326;50.794;6.060;2023-03-04T00:26:40;100628.25;;;1.90;100.00
26719;BME280;14326;50.794;6.060;2023-03-04T00:29:17;100625.56;;;1.88;100.00
26719;BME280;14326;50.794;6.060;2023-03-04T00:32:13;100625.56;;;1.88;100.00
26719;BME280;14326;50.794;6.060;2023-03-04T00:35:10;100623.53;;;1.84;100.00
26719;BME280;14326;50.794;6.060;2023-03-04T00:37:47;100630.69;;;1.87;100.00
26719;BME280;14326;50.794;6.060;2023-03-04T00:40:16;100615.78;;;1.86;100.00
26719;BME280;14326;50.794;6.060;2023-03-04T00:45:50;100617.47;;;1.85;100.00
26719;BME280;14326;50.794;6.060;2023-03-04T00:48:41;100625.47;;;1.87;100.00
26719;BME280;14326;50.794;6.060;2023-03-04T00:51:17;100617.75;;;1.90;100.00
26719;BME280;14326;50.794;6.060;2023-03-04T00:53:55;100608.72;;;1.85;100.00
26719;BME280;14326;50.794;6.060;2023-03-04T00:56:24;100613.16;;;1.86;100.00
26719;BME280;14326;50.794;6.060;2023-03-04T00:58:50;100605.38;;;1.87;100.00
26719;BME280;14326;50.794;6.060;2023-03-04T01:01:29;100609.72;;;1.87;100.00
26719;BME280;14326;50.794;6.060;2023-03-04T01:04:16;100606.28;;;1.88;100.00
26719;BME280;14326;50.794;6.060;2023-03-04T01:06:56;100618.56;;;1.89;100.00
26719;BME280;14326;50.794;6.060;2023-03-04T01:09:40;100615.31;;;1.93;100.00
26719;BME280;14326;50.794;6.060;2023-03-04T01:12:08;100618.84;;;1.93;100.00
26719;BME280;14326;50.794;6.060;2023-03-04T01:14:35;100617.94;;;1.93;100.00
26719;BME280;14326;50.794;6.060;2023-03-04T01:17:02;100619.75;;;1.94;100.00
26719;BME280;14326;50.794;6.060;2023-03-04T01:19:32;100611.97;;;1.95;100.00
26719;BME280;14326;50.794;6.060;2023-03-04T01:22:34;100610.34;;;1.97;100.00
26719;BME280;14326;50.794;6.060;2023-03-04T01:25:14;100600.66;;;1.96;100.00
26719;BME280;14326;50.794;6.060;2023-03-04T01:27:42;100601.75;;;2.00;100.00
26719;BME280;14326;50.794;6.060;2023-03-04T01:30:10;100598.03;;;1.96;100.00
26719;BME280;14326;50.794;6.060;2023-03-04T01:32:37;100605.00;;;1.96;100.00
26719;BME280;14326;50.794;6.060;2023-03-04T01:35:04;100598.13;;;1.98;100.00
26719;BME280;14326;50.794;6.060;2023-03-04T01:37:31;100592.06;;;1.99;100.00
26719;BME280;14326;50.794;6.060;2023-03-04T01:39:58;100592.97;;;1.99;100.00
26719;BME280;14326;50.794;6.060;2023-03-04T01:42:27;100596.50;;;2.00;100.00
26719;BME280;14326;50.794;6.060;2023-03-04T01:44:57;100589.50;;;2.00;100.00
26719;BME280;14326;50.794;6.060;2023-03-04T01:47:40;100581.75;;;2.02;100.00
26719;BME280;14326;50.794;6.060;2023-03-04T01:50:17;100585.38;;;2.04;100.00
26719;BME280;14326;50.794;6.060;2023-03-04T01:52:45;100573.06;;;2.03;100.00
26719;BME280;14326;50.794;6.060;2023-03-04T01:55:15;100575.78;;;2.04;100.00
26719;BME280;14326;50.794;6.060;2023-03-04T01:57:42;100575.03;;;2.07;100.00
26719;BME280;14326;50.794;6.060;2023-03-04T02:00:29;100571.59;;;2.08;100.00
26719;BME280;14326;50.794;6.060;2023-03-04T02:03:06;100568.28;;;2.11;100.00
26719;BME280;14326;50.794;6.060;2023-03-04T02:05:53;100565.72;;;2.12;100.00
26719;BME280;14326;50.794;6.060;2023-03-04T02:08:34;100565.72;;;2.12;100.00
26719;BME280;14326;50.794;6.060;2023-03-04T02:11:01;100555.22;;;2.12;100.00
26719;BME280;14326;50.794;6.060;2023-03-04T02:13:33;100561.56;;;2.16;100.00
26719;BME280;14326;50.794;6.060;2023-03-04T02:16:10;100551.88;;;2.15;100.00
26719;BME280;14326;50.794;6.060;2023-03-04T02:18:52;100557.84;;;2.12;100.00
26719;BME280;14326;50.794;6.060;2023-03-04T02:22:05;100553.59;;;2.14;100.00
26719;BME280;14326;50.794;6.060;2023-03-04T02:25:14;100552.69;;;2.14;100.00
26719;BME280;14326;50.794;6.060;2023-03-04T02:28:03;100552.78;;;2.15;100.00
26719;BME280;14326;50.794;6.060;2023-03-04T02:30:30;100549.34;;;2.16;100.00
26719;BME280;14326;50.794;6.060;2023-03-04T02:32:56;100550.31;;;2.18;100.00
26719;BME280;14326;50.794;6.060;2023-03-04T02:35:23;100550.50;;;2.21;100.00
26719;BME280;14326;50.794;6.060;2023-03-04T02:37:50;100545.16;;;2.20;100.00
26719;BME280;14326;50.794;6.060;2023-03-04T02:40:22;100542.63;;;2.21;100.00
26719;BME280;14326;50.794;6.060;2023-03-04T02:42:49;100546.06;;;2.20;100.00
26719;BME280;14326;50.794;6.060;2023-03-04T02:45:42;100535.56;;;2.20;100.00
26719;BME280;14326;50.794;6.060;2023-03-04T02:48:10;100537.19;;;2.18;100.00
26719;BME280;14326;50.794;6.060;2023-03-04T02:50:40;100539.91;;;2.20;100.00
26719;BME280;14326;50.794;6.060;2023-03-04T02:55:56;100537.38;;;2.21;100.00
26719;BME280;14326;50.794;6.060;2023-03-04T02:58:23;100539.34;;;2.25;100.00
26719;BME280;14326;50.794;6.060;2023-03-04T03:00:51;100535.75;;;2.23;100.00
26719;BME280;14326;50.794;6.060;2023-03-04T03:03:18;100531.41;;;2.24;100.00
26719;BME280;14326;50.794;6.060;2023-03-04T03:05:44;100534.09;;;2.25;100.00
26719;BME280;14326;50.794;6.060;2023-03-04T03:08:11;100527.03;;;2.24;100.00
26719;BME280;14326;50.794;6.060;2023-03-04T03:10:38;100531.41;;;2.24;100.00
26719;BME280;14326;50.794;6.060;2023-03-04T03:13:05;100528.84;;;2.25;100.00
26719;BME280;14326;50.794;6.060;2023-03-04T03:15:59;100520.97;;;2.25;100.00
26719;BME280;14326;50.794;6.060;2023-03-04T03:18:26;100517.53;;;2.26;100.00
26719;BME280;14326;50.794;6.060;2023-03-04T03:20:52;100524.72;;;2.29;100.00
26719;BME280;14326;50.794;6.060;2023-03-04T03:23:26;100511.56;;;2.29;100.00
26719;BME280;14326;50.794;6.060;2023-03-04T03:26:22;100513.34;;;2.30;100.00
26719;BME280;14326;50.794;6.060;2023-03-04T03:28:58;100510.72;;;2.30;100.00
26719;BME280;14326;50.794;6.060;2023-03-04T03:31:26;100511.63;;;2.30;100.00
26719;BME280;14326;50.794;6.060;2023-03-04T03:33:53;100517.91;;;2.32;100.00
26719;BME280;14326;50.794;6.060;2023-03-04T03:36:19;100510.81;;;2.31;100.00
26719;BME280;14326;50.794;6.060;2023-03-04T03:38:46;100508.41;;;2.34;100.00
26719;BME280;14326;50.794;6.060;2023-03-04T03:41:33;100511.03;;;2.34;100.00
26719;BME280;14326;50.794;6.060;2023-03-04T03:44:15;100509.34;;;2.36;100.00
26719;BME280;14326;50.794;6.060;2023-03-04T03:46:43;100507.72;;;2.38;100.00
26719;BME280;14326;50.794;6.060;2023-03-04T03:49:09;100506.00;;;2.39;100.00
26719;BME280;14326;50.794;6.060;2023-03-04T03:51:38;100510.53;;;2.41;100.00
26719;BME280;14326;50.794;6.060;2023-03-04T03:54:26;100507.06;;;2.42;100.00
26719;BME280;14326;50.794;6.060;2023-03-04T03:56:53;100502.66;;;2.41;100.00
26719;BME280;14326;50.794;6.060;2023-03-04T03:59:19;100508.97;;;2.45;100.00
26719;BME280;14326;50.794;6.060;2023-03-04T04:01:49;100505.53;;;2.46;100.00
26719;BME280;14326;50.794;6.060;2023-03-04T04:04:16;100504.63;;;2.45;100.00
26719;BME280;14326;50.794;6.060;2023-03-04T04:06:43;100501.81;;;2.42;100.00
26719;BME280;14326;50.794;6.060;2023-03-04T04:09:09;100503.63;;;2.43;100.00
26719;BME280;14326;50.794;6.060;2023-03-04T04:11:45;100493.13;;;2.43;100.00
26719;BME280;14326;50.794;6.060;2023-03-04T04:14:12;100506.25;;;2.43;100.00
26719;BME280;14326;50.794;6.060;2023-03-04T04:16:39;100502.91;;;2.46;100.00
26719;BME280;14326;50.794;6.060;2023-03-04T04:19:10;100497.66;;;2.46;100.00
26719;BME280;14326;50.794;6.060;2023-03-04T04:21:39;100499.47;;;2.47;100.00
26719;BME280;14326;50.794;6.060;2023-03-04T04:24:06;100495.84;;;2.45;100.00
26719;BME280;14326;50.794;6.060;2023-03-04T04:26:33;100497.56;;;2.44;100.00
26719;BME280;14326;50.794;6.060;2023-03-04T04:28:59;100497.66;;;2.46;100.00
26719;BME280;14326;50.794;6.060;2023-03-04T04:31:26;100494.13;;;2.45;100.00
26719;BME280;14326;50.794;6.060;2023-03-04T04:33:53;100495.19;;;2.49;100.00
26719;BME280;14326;50.794;6.060;2023-03-04T04:36:21;100497.19;;;2.53;100.00
26719;BME280;14326;50.794;6.060;2023-03-04T04:38:47;100493.56;;;2.51;100.00
26719;BME280;14326;50.794;6.060;2023-03-04T04:41:18;100493.66;;;2.53;100.00
26719;BME280;14326;50.794;6.060;2023-03-04T04:43:46;100496.34;;;2.54;100.00
26719;BME280;14326;50.794;6.060;2023-03-04T04:46:12;100499.97;;;2.56;100.00
26719;BME280;14326;50.794;6.060;2023-03-04T04:48:39;100496.44;;;2.56;100.00
26719;BME280;14326;50.794;6.060;2023-03-04T04:51:06;100502.59;;;2.56;100.00
26719;BME280;14326;50.794;6.060;2023-03-04T04:53:50;100500.06;;;2.58;100.00
26719;BME280;14326;50.794;6.060;2023-03-04T04:56:21;100509.00;;;2.61;100.00
26719;BME280;14326;50.794;6.060;2023-03-04T04:59:14;100508.03;;;2.59;100.00
26719;BME280;14326;50.794;6.060;2023-03-04T05:01:40;100504.50;;;2.59;100.00
26719;BME280;14326;50.794;6.060;2023-03-04T05:04:07;100513.28;;;2.59;100.00
26719;BME280;14326;50.794;6.060;2023-03-04T05:06:34;100506.63;;;2.66;100.00
26719;BME280;14326;50.794;6.060;2023-03-04T05:09:02;100510.25;;;2.68;100.00
26719;BME280;14326;50.794;6.060;2023-03-04T05:11:29;100511.97;;;2.67;100.00
26719;BME280;14326;50.794;6.060;2023-03-04T05:13:56;100513.69;;;2.67;100.00
26719;BME280;14326;50.794;6.060;2023-03-04T05:16:22;100518.94;;;2.67;100.00
26719;BME280;14326;50.794;6.060;2023-03-04T05:19:02;100514.91;;;2.73;100.00
26719;BME280;14326;50.794;6.060;2023-03-04T05:21:30;100514.00;;;2.73;100.00
26719;BME280;14326;50.794;6.060;2023-03-04T05:23:57;100514.00;;;2.73;100.00
26719;BME280;14326;50.794;6.060;2023-03-04T05:26:25;100512.28;;;2.73;100.00
26719;BME280;14326;50.794;6.060;2023-03-04T05:28:52;100500.06;;;2.74;100.00
26719;BME280;14326;50.794;6.060;2023-03-04T05:31:18;100505.56;;;2.78;100.00
26719;BME280;14326;50.794;6.060;2023-03-04T05:33:45;100507.28;;;2.78;100.00
26719;BME280;14326;50.794;6.060;2023-03-04T05:36:11;100504.97;;;2.84;100.00
26719;BME280;14326;50.794;6.060;2023-03-04T05:38:38;100506.66;;;2.82;100.00
26719;BME280;14326;50.794;6.060;2023-03-04T05:41:06;100512.72;;;2.81;100.00
26719;BME280;14326;50.794;6.060;2023-03-04T05:43:34;100516.25;;;2.81;100.00
26719;BME280;14326;50.794;6.060;2023-03-04T05:46:03;100513.69;;;2.83;100.00
26719;BME280;14326;50.794;6.060;2023-03-04T05:48:30;100524.03;;;2.80;100.00
26719;BME280;14326;50.794;6.060;2023-03-04T05:50:58;100517.97;;;2.81;100.00
26719;BME280;14326;50.794;6.060;2023-03-04T05:53:24;100515.34;;;2.81;100.00
26719;BME280;14326;50.794;6.060;2023-03-04T05:55:51;100526.00;;;2.84;100.00
26719;BME280;14326;50.794;6.060;2023-03-04T05:58:19;100528.47;;;2.81;100.00
26719;BME280;14326;50.794;6.060;2023-03-04T06:00:47;100529.19;;;2.78;100.00
26719;BME280;14326;50.794;6.060;2023-03-04T06:03:16;100527.34;;;2.76;100.00
26719;BME280;14326;50.794;6.060;2023-03-04T06:05:42;100523.03;;;2.78;100.00
26719;BME280;14326;50.794;6.060;2023-03-04T06:08:10;100531.69;;;2.75;100.00
26719;BME280;14326;50.794;6.060;2023-03-04T06:10:37;100518.94;;;2.83;100.00
26719;BME280;14326;50.794;6.060;2023-03-04T06:13:04;100531.25;;;2.84;100.00
26719;BME280;14326;50.794;6.060;2023-03-04T06:15:31;100523.38;;;2.84;100.00
26719;BME280;14326;50.794;6.060;2023-03-04T06:18:13;100521.56;;;2.83;100.00
26719;BME280;14326;50.794;6.060;2023-03-04T06:20:40;100532.06;;;2.83;100.00
26719;BME280;14326;50.794;6.060;2023-03-04T06:23:09;100528.63;;;2.84;100.00
26719;BME280;14326;50.794;6.060;2023-03-04T06:25:37;100522.66;;;2.86;100.00
26719;BME280;14326;50.794;6.060;2023-03-04T06:28:04;100527.91;;;2.86;100.00
26719;BME280;14326;50.794;6.060;2023-03-04T06:30:30;100527.16;;;2.89;100.00
26719;BME280;14326;50.794;6.060;2023-03-04T06:32:57;100536.78;;;2.88;100.00
26719;BME280;14326;50.794;6.060;2023-03-04T06:35:25;100536.78;;;2.88;100.00
26719;BME280;14326;50.794;6.060;2023-03-04T06:37:52;100546.38;;;2.88;100.00
26719;BME280;14326;50.794;6.060;2023-03-04T06:40:18;100545.63;;;2.91;100.00
26719;BME280;14326;50.794;6.060;2023-03-04T06:42:45;100544.72;;;2.90;100.00
26719;BME280;14326;50.794;6.060;2023-03-04T06:45:17;100550.97;;;2.92;100.00
26719;BME280;14326;50.794;6.060;2023-03-04T06:47:43;100543.09;;;2.92;100.00
26719;BME280;14326;50.794;6.060;2023-03-04T06:50:11;100551.97;;;2.94;100.00
26719;BME280;14326;50.794;6.060;2023-03-04T06:52:40;100553.75;;;2.95;100.00
26719;BME280;14326;50.794;6.060;2023-03-04T06:55:07;100553.84;;;2.97;100.00
26719;BME280;14326;50.794;6.060;2023-03-04T06:57:34;100552.13;;;2.97;100.00
26719;BME280;14326;50.794;6.060;2023-03-04T07:00:01;100552.13;;;2.97;100.00
26719;BME280;14326;50.794;6.060;2023-03-04T07:02:28;100546.06;;;2.98;100.00
26719;BME280;14326;50.794;6.060;2023-03-04T07:04:55;100563.69;;;3.01;100.00
26719;BME280;14326;50.794;6.060;2023-03-04T07:07:21;100553.19;;;3.01;100.00
26719;BME280;14326;50.794;6.060;2023-03-04T07:09:51;100555.19;;;3.05;100.00
26719;BME280;14326;50.794;6.060;2023-03-04T07:12:18;100561.47;;;3.08;100.00
26719;BME280;14326;50.794;6.060;2023-03-04T07:14:45;100565.34;;;3.15;100.00
26719;BME280;14326;50.794;6.060;2023-03-04T07:17:11;100561.00;;;3.15;100.00
26719;BME280;14326;50.794;6.060;2023-03-04T07:19:38;100566.41;;;3.18;100.00
26719;BME280;14326;50.794;6.060;2023-03-04T07:22:06;100564.19;;;3.26;100.00
26719;BME280;14326;50.794;6.060;2023-03-04T07:24:33;100568.50;;;3.24;100.00
26719;BME280;14326;50.794;6.060;2023-03-04T07:27:01;100576.28;;;3.22;100.00
26719;BME280;14326;50.794;6.060;2023-03-04T07:29:27;100572.06;;;3.26;100.00
26719;BME280;14326;50.794;6.060;2023-03-04T07:31:54;100572.25;;;3.29;100.00
26719;BME280;14326;50.794;6.060;2023-03-04T07:34:21;100563.53;;;3.30;100.00
26719;BME280;14326;50.794;6.060;2023-03-04T07:36:47;100573.31;;;3.33;100.00
26719;BME280;14326;50.794;6.060;2023-03-04T07:39:14;100574.44;;;3.38;100.00
26719;BME280;14326;50.794;6.060;2023-03-04T07:41:41;100569.44;;;3.42;100.00
26719;BME280;14326;50.794;6.060;2023-03-04T07:44:11;100569.38;;;3.41;100.00
26719;BME280;14326;50.794;6.060;2023-03-04T07:46:39;100571.34;;;3.45;100.00
26719;BME280;14326;50.794;6.060;2023-03-04T07:49:06;100570.50;;;3.46;100.00
26719;BME280;14326;50.794;6.060;2023-03-04T07:51:33;100583.00;;;3.50;100.00
26719;BME280;14326;50.794;6.060;2023-03-04T07:54:02;100584.00;;;3.52;100.00
26719;BME280;14326;50.794;6.060;2023-03-04T07:56:31;100584.88;;;3.52;100.00
26719;BME280;14326;50.794;6.060;2023-03-04T07:58:58;100579.88;;;3.57;100.00
26719;BME280;14326;50.794;6.060;2023-03-04T08:01:28;100576.72;;;3.64;100.00
26719;BME280;14326;50.794;6.060;2023-03-04T08:03:56;100579.41;;;3.65;100.00
26719;BME280;14326;50.794;6.060;2023-03-04T08:06:23;100584.78;;;3.67;100.00
26719;BME280;14326;50.794;6.060;2023-03-04T08:08:55;100578.69;;;3.68;100.00
26719;BME280;14326;50.794;6.060;2023-03-04T08:11:22;100583.44;;;3.75;100.00
26719;BME280;14326;50.794;6.060;2023-03-04T08:13:49;100583.53;;;3.77;100.00
26719;BME280;14326;50.794;6.060;2023-03-04T08:16:19;100585.31;;;3.78;100.00
26719;BME280;14326;50.794;6.060;2023-03-04T08:18:48;100582.94;;;3.82;100.00
26719;BME280;14326;50.794;6.060;2023-03-04T08:21:17;100592.13;;;3.90;100.00
26719;BME280;14326;50.794;6.060;2023-03-04T08:23:45;100585.94;;;3.90;100.00
26719;BME280;14326;50.794;6.060;2023-03-04T08:26:14;100589.66;;;3.93;100.00
26719;BME280;14326;50.794;6.060;2023-03-04T08:28:41;100584.41;;;3.93;100.00
26719;BME280;14326;50.794;6.060;2023-03-04T08:31:11;100590.78;;;3.98;100.00
26719;BME280;14326;50.794;6.060;2023-03-04T08:33:37;100591.59;;;3.97;100.00
26719;BME280;14326;50.794;6.060;2023-03-04T08:36:06;100592.75;;;4.02;100.00
26719;BME280;14326;50.794;6.060;2023-03-04T08:38:33;100593.88;;;4.07;100.00
26719;BME280;14326;50.794;6.060;2023-03-04T08:41:00;100593.97;;;4.09;100.00
26719;BME280;14326;50.794;6.060;2023-03-04T08:43:34;100605.53;;;4.12;100.00
26719;BME280;14326;50.794;6.060;2023-03-04T08:46:01;100597.81;;;4.16;100.00
26719;BME280;14326;50.794;6.060;2023-03-04T08:48:27;100595.16;;;4.16;100.00
26719;BME280;14326;50.794;6.060;2023-03-04T08:50:54;100606.84;;;4.21;100.00
26719;BME280;14326;50.794;6.060;2023-03-04T08:53:22;100609.94;;;4.30;100.00
26719;BME280;14326;50.794;6.060;2023-03-04T08:55:50;100597.06;;;4.36;100.00
26719;BME280;14326;50.794;6.060;2023-03-04T08:58:17;100607.06;;;4.43;99.89
26719;BME280;14326;50.794;6.060;2023-03-04T09:00:45;100612.50;;;4.46;99.30
26719;BME280;14326;50.794;6.060;2023-03-04T09:03:15;100604.69;;;4.47;99.52
26719;BME280;14326;50.794;6.060;2023-03-04T09:05:44;100603.59;;;4.44;100.00
26719;BME280;14326;50.794;6.060;2023-03-04T09:08:11;100613.31;;;4.45;100.00
26719;BME280;14326;50.794;6.060;2023-03-04T09:10:40;100606.31;;;4.45;100.00
26719;BME280;14326;50.794;6.060;2023-03-04T09:13:07;100599.41;;;4.47;100.00
26719;BME280;14326;50.794;6.060;2023-03-04T09:15:36;100602.34;;;4.53;100.00
26719;BME280;14326;50.794;6.060;2023-03-04T09:18:04;100599.16;;;4.61;99.57
26719;BME280;14326;50.794;6.060;2023-03-04T09:20:31;100601.19;;;4.66;98.67
26719;BME280;14326;50.794;6.060;2023-03-04T09:22:58;100595.25;;;4.70;99.35
26719;BME280;14326;50.794;6.060;2023-03-04T09:25:24;100597.28;;;4.76;98.95
26719;BME280;14326;50.794;6.060;2023-03-04T09:27:52;100606.13;;;4.78;98.47
26719;BME280;14326;50.794;6.060;2023-03-04T09:30:20;100598.47;;;4.82;98.27
26719;BME280;14326;50.794;6.060;2023-03-04T09:32:46;100597.84;;;4.88;97.94
26719;BME280;14326;50.794;6.060;2023-03-04T09:35:13;100596.88;;;4.86;98.37
26719;BME280;14326;50.794;6.060;2023-03-04T09:37:40;100598.81;;;4.90;98.40
26719;BME280;14326;50.794;6.060;2023-03-04T09:40:10;100597.06;;;4.90;98.50
26719;BME280;14326;50.794;6.060;2023-03-04T09:42:42;100597.06;;;4.90;98.50
26719;BME280;14326;50.794;6.060;2023-03-04T09:45:16;100593.91;;;4.98;98.74
26719;BME280;14326;50.794;6.060;2023-03-04T09:47:45;100599.34;;;5.01;97.00
26719;BME280;14326;50.794;6.060;2023-03-04T09:50:12;100591.69;;;5.07;97.21
26719;BME280;14326;50.794;6.060;2023-03-04T09:52:48;100591.03;;;5.11;97.10
26719;BME280;14326;50.794;6.060;2023-03-04T09:55:22;100585.94;;;5.15;96.69
26719;BME280;14326;50.794;6.060;2023-03-04T09:57:52;100585.19;;;5.18;96.76
26719;BME280;14326;50.794;6.060;2023-03-04T10:00:24;100580.13;;;5.22;97.50
26719;BME280;14326;50.794;6.060;2023-03-04T10:03:09;100574.00;;;5.43;96.66
26719;BME280;14326;50.794;6.060;2023-03-04T10:05:41;100570.06;;;5.52;95.13
26719;BME280;14326;50.794;6.060;2023-03-04T10:08:26;100577.16;;;5.74;95.32
26719;BME280;14326;50.794;6.060;2023-03-04T10:10:58;100575.91;;;5.85;94.55
26719;BME280;14326;50.794;6.060;2023-03-04T10:13:30;100573.75;;;5.96;93.15
26719;BME280;14326;50.794;6.060;2023-03-04T10:16:04;100582.72;;;5.99;91.89
26719;BME280;14326;50.794;6.060;2023-03-04T10:18:36;100573.06;;;6.00;91.05
26719;BME280;14326;50.794;6.060;2023-03-04T10:21:18;100578.00;;;5.92;91.45
26719;BME280;14326;50.794;6.060;2023-03-04T10:23:45;100575.28;;;5.91;91.65
26719;BME280;14326;50.794;6.060;2023-03-04T10:26:15;100575.28;;;5.91;91.68
26719;BME280;14326;50.794;6.060;2023-03-04T10:28:45;100570.91;;;5.91;91.83
26719;BME280;14326;50.794;6.060;2023-03-04T10:31:20;100570.28;;;5.97;91.15
26719;BME280;14326;50.794;6.060;2023-03-04T10:33:48;100574.66;;;5.96;91.49
26719;BME280;14326;50.794;6.060;2023-03-04T10:36:33;100569.09;;;5.90;91.96
26719;BME280;14326;50.794;6.060;2023-03-04T10:39:05;100566.03;;;6.00;91.75
26719;BME280;14326;50.794;6.060;2023-03-04T10:41:33;100560.81;;;6.23;90.97
26719;BME280;14326;50.794;6.060;2023-03-04T10:44:01;100554.53;;;6.41;89.98
26719;BME280;14326;50.794;6.060;2023-03-04T10:46:29;100549.28;;;6.43;88.76
26719;BME280;14326;50.794;6.060;2023-03-04T10:48:57;100553.81;;;6.45;89.05
26719;BME280;14326;50.794;6.060;2023-03-04T10:51:25;100554.66;;;6.44;87.91
26719;BME280;14326;50.794;6.060;2023-03-04T10:53:56;100560.19;;;6.50;87.45
26719;BME280;14326;50.794;6.060;2023-03-04T10:56:31;100553.00;;;6.46;87.52
26719;BME280;14326;50.794;6.060;2023-03-04T11:02:24;100555.38;;;6.20;86.58
26719;BME280;14326;50.794;6.060;2023-03-04T11:04:53;100554.03;;;6.08;87.80
26719;BME280;14326;50.794;6.060;2023-03-04T11:07:21;100558.31;;;6.05;88.77
26719;BME280;14326;50.794;6.060;2023-03-04T11:09:48;100554.09;;;6.10;89.41
26719;BME280;14326;50.794;6.060;2023-03-04T11:12:16;100554.19;;;6.11;90.14
26719;BME280;14326;50.794;6.060;2023-03-04T11:14:46;100558.56;;;6.11;90.58
26719;BME280;14326;50.794;6.060;2023-03-04T11:17:20;100551.31;;;6.07;89.77
26719;BME280;14326;50.794;6.060;2023-03-04T11:20:10;100550.56;;;6.09;89.83
26719;BME280;14326;50.794;6.060;2023-03-04T11:22:40;100558.16;;;6.02;89.64
26719;BME280;14326;50.794;6.060;2023-03-04T11:25:20;100553.41;;;5.93;90.26
26719;BME280;14326;50.794;6.060;2023-03-04T11:27:53;100552.19;;;5.87;91.10
26719;BME280;14326;50.794;6.060;2023-03-04T11:30:28;100548.78;;;5.88;91.15
26719;BME280;14326;50.794;6.060;2023-03-04T11:33:05;100543.19;;;5.82;91.66
26719;BME280;14326;50.794;6.060;2023-03-04T11:35:41;100542.59;;;5.87;92.35
26719;BME280;14326;50.794;6.060;2023-03-04T11:38:15;100541.81;;;6.10;91.28
26719;BME280;14326;50.794;6.060;2023-03-04T11:40:44;100540.69;;;6.26;90.83
26719;BME280;14326;50.794;6.060;2023-03-04T11:43:15;100533.66;;;6.47;90.29
26719;BME280;14326;50.794;6.060;2023-03-04T11:46:01;100525.53;;;6.65;89.94
26719;BME280;14326;50.794;6.060;2023-03-04T11:48:48;100526.91;;;6.78;88.92
26719;BME280;14326;50.794;6.060;2023-03-04T11:51:23;100527.19;;;6.85;87.22
26719;BME280;14326;50.794;6.060;2023-03-04T11:53:59;100516.94;;;6.93;87.21
26719;BME280;14326;50.794;6.060;2023-03-04T11:56:31;100518.22;;;7.04;86.53
26719;BME280;14326;50.794;6.060;2023-03-04T11:59:19;100508.66;;;7.08;84.81
26719;BME280;14326;50.794;6.060;2023-03-04T12:01:54;100506.66;;;7.01;84.38
26719;BME280;14326;50.794;6.060;2023-03-04T12:04:39;100505.16;;;7.09;84.84
26719;BME280;14326;50.794;6.060;2023-03-04T12:07:19;100505.69;;;6.98;83.95
26719;BME280;14326;50.794;6.060;2023-03-04T12:10:16;100499.38;;;6.95;84.63
26719;BME280;14326;50.794;6.060;2023-03-04T12:16:29;100488.56;;;6.89;85.48
26719;BME280;14326;50.794;6.060;2023-03-04T12:19:13;100484.34;;;6.94;84.62
26719;BME280;14326;50.794;6.060;2023-03-04T12:25:18;100482.31;;;6.87;85.65
26719;BME280;14326;50.794;6.060;2023-03-04T12:27:55;100471.06;;;6.92;85.19
26719;BME280;14326;50.794;6.060;2023-03-04T12:30:37;100480.81;;;6.93;85.07
26719;BME280;14326;50.794;6.060;2023-03-04T12:33:14;100476.53;;;6.97;85.26
26719;BME280;14326;50.794;6.060;2023-03-04T12:35:52;100467.59;;;6.93;84.85
26719;BME280;14326;50.794;6.060;2023-03-04T12:38:33;100456.25;;;6.97;84.39
26719;BME280;14326;50.794;6.060;2023-03-04T12:41:16;100449.31;;;7.01;84.52
26719;BME280;14326;50.794;6.060;2023-03-04T12:43:52;100454.81;;;7.06;84.94
26719;BME280;14326;50.794;6.060;2023-03-04T12:46:36;100450.44;;;7.08;84.19
26719;BME280;14326;50.794;6.060;2023-03-04T12:49:33;100451.34;;;7.08;84.39
26719;BME280;14326;50.794;6.060;2023-03-04T12:52:20;100450.66;;;7.12;84.53
26719;BME280;14326;50.794;6.060;2023-03-04T12:54:54;100448.50;;;7.02;84.07
26719;BME280;14326;50.794;6.060;2023-03-04T12:57:24;100447.56;;;7.00;84.37
26719;BME280;14326;50.794;6.060;2023-03-04T12:59:57;100441.91;;;6.91;84.89
26719;BME280;14326;50.794;6.060;2023-03-04T13:02:54;100443.63;;;6.89;85.13
26719;BME280;14326;50.794;6.060;2023-03-04T13:05:43;100446.28;;;6.90;84.81
26719;BME280;14326;50.794;6.060;2023-03-04T13:08:25;100439.19;;;6.89;85.95
26719;BME280;14326;50.794;6.060;2023-03-04T13:11:00;100432.00;;;6.85;85.99
26719;BME280;14326;50.794;6.060;2023-03-04T13:13:41;100433.75;;;6.85;86.07
26719;BME280;14326;50.794;6.060;2023-03-04T13:16:28;100435.41;;;6.81;86.69
26719;BME280;14326;50.794;6.060;2023-03-04T13:18:56;100429.28;;;6.84;86.90
26719;BME280;14326;50.794;6.060;2023-03-04T13:21:25;100427.41;;;6.80;87.18
26719;BME280;14326;50.794;6.060;2023-03-04T13:23:53;100424.81;;;6.81;87.26
26719;BME280;14326;50.794;6.060;2023-03-04T13:26:22;100425.81;;;6.85;87.25
26719;BME280;14326;50.794;6.060;2023-03-04T13:29:09;100413.66;;;6.90;86.92
26719;BME280;14326;50.794;6.060;2023-03-04T13:31:57;100409.34;;;6.92;86.65
26719;BME280;14326;50.794;6.060;2023-03-04T13:34:45;100411.00;;;6.90;87.04